createdAt,value
2018-09-26T00:00:02.481Z,8.23
2018-09-26T00:02:35.094Z,8.21
2018-09-26T00:05:04.231Z,8.18
2018-09-26T00:07:34.075Z,8.17
2018-09-26T00:10:03.093Z,8.07
2018-09-26T00:12:32.063Z,8.01
2018-09-26T00:15:01.024Z,8.10
2018-09-26T00:17:30.382Z,8.10
2018-09-26T00:19:59.916Z,8.03
2018-09-26T00:22:30.089Z,7.92
2018-09-26T00:24:59.567Z,7.95
2018-09-26T00:27:29.082Z,7.90
2018-09-26T00:29:58.651Z,7.91
2018-09-26T00:32:28.465Z,7.89
2018-09-26T00:34:58.164Z,7.80
2018-09-26T00:37:27.463Z,7.79
2018-09-26T00:39:56.180Z,7.82
2018-09-26T00:42:25.028Z,7.84
2018-09-26T00:44:54.167Z,7.91
2018-09-26T00:47:22.979Z,7.92
2018-09-26T00:49:52.005Z,7.88
2018-09-26T00:52:20.855Z,7.85
2018-09-26T00:54:49.929Z,7.81
2018-09-26T00:57:20.470Z,7.77
2018-09-26T00:59:50.533Z,7.70
2018-09-26T01:02:20.284Z,7.66
2018-09-26T01:04:50.493Z,7.53
2018-09-26T01:07:19.915Z,7.49
2018-09-26T01:09:49.933Z,7.47
2018-09-26T01:12:19.746Z,7.49
2018-09-26T01:14:48.710Z,7.50
2018-09-26T01:17:18.458Z,7.46
2018-09-26T01:19:47.761Z,7.47
2018-09-26T01:22:17.554Z,7.40
2018-09-26T01:24:47.171Z,7.37
2018-09-26T01:27:15.940Z,7.36
2018-09-26T01:29:44.679Z,7.28
2018-09-26T01:32:13.554Z,7.20
2018-09-26T01:34:42.902Z,7.15
2018-09-26T01:37:11.957Z,7.14
2018-09-26T01:39:41.322Z,7.20
2018-09-26T01:42:10.149Z,7.20
2018-09-26T01:44:39.229Z,7.07
2018-09-26T01:47:08.033Z,7.03
2018-09-26T01:49:37.110Z,6.99
2018-09-26T01:52:05.886Z,6.97
2018-09-26T01:54:34.578Z,6.96
2018-09-26T01:57:03.884Z,7.01
2018-09-26T01:59:33.223Z,7.02
2018-09-26T02:02:02.365Z,7.04
2018-09-26T02:04:32.379Z,7.05
2018-09-26T02:07:01.746Z,7.06
2018-09-26T02:09:30.492Z,7.11
2018-09-26T02:11:59.661Z,7.09
2018-09-26T02:14:28.433Z,7.07
2018-09-26T02:16:57.222Z,6.97
2018-09-26T02:19:26.025Z,7.00
2018-09-26T02:21:54.800Z,6.98
2018-09-26T02:24:23.797Z,6.96
2018-09-26T02:26:53.515Z,6.92
2018-09-26T02:29:23.234Z,6.90
2018-09-26T02:31:52.923Z,6.83
2018-09-26T02:34:23.348Z,6.77
2018-09-26T02:36:53.278Z,6.81
2018-09-26T02:39:23.119Z,6.88
2018-09-26T02:41:52.171Z,6.89
2018-09-26T02:44:20.941Z,6.81
2018-09-26T02:46:51.694Z,6.79
2018-09-26T02:49:21.510Z,6.86
2018-09-26T02:51:50.306Z,6.92
2018-09-26T02:54:19.274Z,6.89
2018-09-26T02:56:48.499Z,6.85
2018-09-26T02:59:17.395Z,6.86
2018-09-26T03:01:46.176Z,6.84
2018-09-26T03:04:15.070Z,6.83
2018-09-26T03:06:43.851Z,6.79
2018-09-26T03:09:12.970Z,6.77
2018-09-26T03:11:41.843Z,6.65
2018-09-26T03:14:10.638Z,6.65
2018-09-26T03:16:39.627Z,6.60
2018-09-26T03:19:09.378Z,6.60
2018-09-26T03:21:38.895Z,6.51
2018-09-26T03:24:08.729Z,6.47
2018-09-26T03:26:38.177Z,6.48
2018-09-26T03:29:08.480Z,6.58
2018-09-26T03:31:37.607Z,6.56
2018-09-26T03:34:07.163Z,6.55
2018-09-26T03:36:36.907Z,6.62
2018-09-26T03:39:08.200Z,6.66
2018-09-26T03:41:38.367Z,6.65
2018-09-26T03:44:07.565Z,6.61
2018-09-26T03:46:36.938Z,6.58
2018-09-26T03:49:06.687Z,6.55
2018-09-26T03:51:36.465Z,6.55
2018-09-26T03:54:05.691Z,6.60
2018-09-26T03:56:36.121Z,6.57
2018-09-26T03:59:05.388Z,6.62
2018-09-26T04:01:35.735Z,6.60
2018-09-26T04:04:05.902Z,6.57
2018-09-26T04:06:35.175Z,6.53
2018-09-26T04:09:04.717Z,6.48
2018-09-26T04:11:33.856Z,6.46
2018-09-26T04:14:03.777Z,6.36
2018-09-26T04:16:32.663Z,6.31
2018-09-26T04:19:01.538Z,6.24
2018-09-26T04:21:34.510Z,6.21
2018-09-26T04:24:03.603Z,6.19
2018-09-26T04:26:32.666Z,6.27
2018-09-26T04:29:01.812Z,6.19
2018-09-26T04:31:31.502Z,6.25
2018-09-26T04:34:01.687Z,6.30
2018-09-26T04:36:31.226Z,6.33
2018-09-26T04:39:00.780Z,6.41
2018-09-26T04:41:30.804Z,6.36
2018-09-26T04:44:00.702Z,6.36
2018-09-26T04:46:30.428Z,6.31
2018-09-26T04:49:00.825Z,6.34
2018-09-26T04:51:30.597Z,6.36
2018-09-26T04:54:00.060Z,6.34
2018-09-26T04:56:29.217Z,6.29
2018-09-26T04:58:58.287Z,6.36
2018-09-26T05:01:27.489Z,6.28
2018-09-26T05:03:56.336Z,6.29
2018-09-26T05:06:25.337Z,6.20
2018-09-26T05:08:54.118Z,6.29
2018-09-26T05:11:23.139Z,6.24
2018-09-26T05:13:52.102Z,6.18
2018-09-26T05:16:24.359Z,6.26
2018-09-26T05:19:01.133Z,6.29
2018-09-26T05:21:35.353Z,6.30
2018-09-26T05:24:04.710Z,6.24
2018-09-26T05:26:33.767Z,6.24
2018-09-26T05:29:02.664Z,6.20
2018-09-26T05:31:31.909Z,6.15
2018-09-26T05:34:01.303Z,6.10
2018-09-26T05:36:30.180Z,6.09
2018-09-26T05:38:59.306Z,6.14
2018-09-26T05:41:28.112Z,6.23
2018-09-26T05:43:57.308Z,6.22
2018-09-26T05:46:26.226Z,6.27
2018-09-26T05:48:55.585Z,6.30
2018-09-26T05:51:25.800Z,6.33
2018-09-26T05:53:54.619Z,6.34
2018-09-26T05:56:23.610Z,6.37
2018-09-26T05:58:52.780Z,6.49
2018-09-26T06:01:22.829Z,6.57
2018-09-26T06:03:51.559Z,6.66
2018-09-26T06:06:20.523Z,6.78
2018-09-26T06:08:49.638Z,6.86
2018-09-26T06:11:18.659Z,6.81
2018-09-26T06:13:47.782Z,6.85
2018-09-26T06:16:16.550Z,6.83
2018-09-26T06:18:45.579Z,6.81
2018-09-26T06:21:14.701Z,6.87
2018-09-26T06:23:43.487Z,6.92
2018-09-26T06:26:12.280Z,7.00
2018-09-26T06:28:41.046Z,7.04
2018-09-26T06:31:09.829Z,7.10
2018-09-26T06:33:39.529Z,7.15
2018-09-26T06:36:08.732Z,7.25
2018-09-26T06:38:37.507Z,7.28
2018-09-26T06:41:06.354Z,7.33
2018-09-26T06:43:35.208Z,7.33
2018-09-26T06:46:06.167Z,7.40
2018-09-26T06:48:36.896Z,7.47
2018-09-26T06:51:05.804Z,7.57
2018-09-26T06:53:34.916Z,7.64
2018-09-26T06:56:04.291Z,7.78
2018-09-26T06:58:33.225Z,7.82
2018-09-26T07:01:02.648Z,7.88
2018-09-26T07:03:31.582Z,7.99
2018-09-26T07:06:00.402Z,8.08
2018-09-26T07:08:29.878Z,8.17
2018-09-26T07:10:59.183Z,8.28
2018-09-26T07:13:28.314Z,8.33
2018-09-26T07:15:57.111Z,8.44
2018-09-26T07:18:25.910Z,8.61
2018-09-26T07:20:54.718Z,8.72
2018-09-26T07:23:23.533Z,8.75
2018-09-26T07:25:52.318Z,8.76
2018-09-26T07:28:21.212Z,8.77
2018-09-26T07:30:50.616Z,8.79
2018-09-26T07:33:21.848Z,8.82
2018-09-26T07:35:51.469Z,8.94
2018-09-26T07:38:21.279Z,8.96
2018-09-26T07:40:51.227Z,9.12
2018-09-26T07:43:20.487Z,9.36
2018-09-26T07:45:49.896Z,9.48
2018-09-26T07:48:18.850Z,9.61
2018-09-26T07:50:47.748Z,9.69
2018-09-26T07:53:17.068Z,9.75
2018-09-26T07:55:45.892Z,9.83
2018-09-26T07:58:14.956Z,9.92
2018-09-26T08:00:44.444Z,10.19
2018-09-26T08:03:13.193Z,10.32
2018-09-26T08:05:42.354Z,10.50
2018-09-26T08:08:11.264Z,10.51
2018-09-26T08:10:46.405Z,10.45
2018-09-26T08:13:15.176Z,10.45
2018-09-26T08:15:43.983Z,10.40
2018-09-26T08:18:13.126Z,10.40
2018-09-26T08:20:42.256Z,10.42
2018-09-26T08:23:11.353Z,10.47
2018-09-26T08:25:40.418Z,10.62
2018-09-26T08:28:09.434Z,10.80
2018-09-26T08:30:38.517Z,10.97
2018-09-26T08:33:07.371Z,11.10
2018-09-26T08:35:36.116Z,11.38
2018-09-26T08:38:05.213Z,11.66
2018-09-26T08:40:33.937Z,11.81
2018-09-26T08:43:03.030Z,12.12
2018-09-26T08:45:32.143Z,12.33
2018-09-26T08:48:00.869Z,12.48
2018-09-26T08:50:30.075Z,12.35
2018-09-26T08:52:58.819Z,12.30
2018-09-26T08:55:27.651Z,12.31
2018-09-26T08:57:56.766Z,12.41
2018-09-26T09:00:30.552Z,12.41
2018-09-26T09:02:59.281Z,12.35
2018-09-26T09:05:28.746Z,12.26
2018-09-26T09:07:57.586Z,12.21
2018-09-26T09:10:26.476Z,12.24
2018-09-26T09:12:55.392Z,12.22
2018-09-26T09:15:24.573Z,12.31
2018-09-26T09:17:53.685Z,12.36
2018-09-26T09:20:22.786Z,12.45
2018-09-26T09:22:51.571Z,12.56
2018-09-26T09:25:20.412Z,12.64
2018-09-26T09:27:49.280Z,12.75
2018-09-26T09:30:18.371Z,12.83
2018-09-26T09:32:47.301Z,12.88
2018-09-26T09:35:16.590Z,13.03
2018-09-26T09:37:45.354Z,13.19
2018-09-26T09:40:14.366Z,13.28
2018-09-26T09:42:43.666Z,13.32
2018-09-26T09:45:12.479Z,13.40
2018-09-26T09:47:41.500Z,13.44
2018-09-26T09:50:10.272Z,13.40
2018-09-26T09:52:39.288Z,13.37
2018-09-26T09:55:08.204Z,13.50
2018-09-26T09:57:37.059Z,13.60
2018-09-26T10:00:05.924Z,13.70
2018-09-26T10:02:34.908Z,13.78
2018-09-26T10:05:03.636Z,13.84
2018-09-26T10:07:33.222Z,13.93
2018-09-26T10:10:01.953Z,14.04
2018-09-26T10:12:30.955Z,14.17
2018-09-26T10:14:59.850Z,14.31
2018-09-26T10:17:29.291Z,14.49
2018-09-26T10:19:58.085Z,14.57
2018-09-26T10:22:27.470Z,14.80
2018-09-26T10:24:57.423Z,14.94
2018-09-26T10:27:26.068Z,15.06
2018-09-26T10:29:54.833Z,15.17
2018-09-26T10:32:23.702Z,15.09
2018-09-26T10:34:52.467Z,15.03
2018-09-26T10:37:21.303Z,15.14
2018-09-26T10:39:50.069Z,15.13
2018-09-26T10:42:18.929Z,15.07
2018-09-26T10:44:48.020Z,14.96
2018-09-26T10:47:17.398Z,15.00
2018-09-26T10:49:46.754Z,15.01
2018-09-26T10:52:15.879Z,14.95
2018-09-26T10:54:45.385Z,14.95
2018-09-26T10:57:14.462Z,14.91
2018-09-26T10:59:43.278Z,14.90
2018-09-26T11:02:12.179Z,14.98
2018-09-26T11:04:40.949Z,15.02
2018-09-26T11:07:10.175Z,15.07
2018-09-26T11:09:39.323Z,15.09
2018-09-26T11:12:08.486Z,15.17
2018-09-26T11:14:37.330Z,15.22
2018-09-26T11:17:06.478Z,15.19
2018-09-26T11:19:35.370Z,15.26
2018-09-26T11:22:04.775Z,15.36
2018-09-26T11:24:33.889Z,15.44
2018-09-26T11:27:02.919Z,15.56
2018-09-26T11:29:31.883Z,15.60
2018-09-26T11:32:00.714Z,15.72
2018-09-26T11:34:29.461Z,15.74
2018-09-26T11:36:58.689Z,15.77
2018-09-26T11:39:27.482Z,15.77
2018-09-26T11:41:56.319Z,15.81
2018-09-26T11:44:25.779Z,15.94
2018-09-26T11:46:55.674Z,16.00
2018-09-26T11:49:25.949Z,16.03
2018-09-26T11:51:54.849Z,16.14
2018-09-26T11:54:24.220Z,16.39
2018-09-26T11:56:53.189Z,16.77
2018-09-26T11:59:22.050Z,17.12
2018-09-26T12:01:50.991Z,17.62
2018-09-26T12:04:20.553Z,17.87
2018-09-26T12:06:49.312Z,18.15
2018-09-26T12:09:18.264Z,18.38
2018-09-26T12:11:47.286Z,18.64
2018-09-26T12:14:16.124Z,18.32
2018-09-26T12:16:44.955Z,17.63
2018-09-26T12:19:14.351Z,17.38
2018-09-26T12:21:43.153Z,17.06
2018-09-26T12:24:12.334Z,16.87
2018-09-26T12:26:41.197Z,16.73
2018-09-26T12:29:10.078Z,16.61
2018-09-26T12:31:39.156Z,16.57
2018-09-26T12:34:08.226Z,16.44
2018-09-26T12:36:36.991Z,16.36
2018-09-26T12:39:08.944Z,16.27
2018-09-26T12:41:37.771Z,16.21
2018-09-26T12:44:07.557Z,16.17
2018-09-26T12:46:36.324Z,16.22
2018-09-26T12:49:05.224Z,16.26
2018-09-26T12:51:34.695Z,16.26
2018-09-26T12:54:03.541Z,16.31
2018-09-26T12:56:32.516Z,16.40
2018-09-26T12:59:03.044Z,16.40
2018-09-26T13:01:31.988Z,16.45
2018-09-26T13:04:00.866Z,16.58
2018-09-26T13:06:29.796Z,16.63
2018-09-26T13:08:58.712Z,16.75
2018-09-26T13:11:28.110Z,16.81
2018-09-26T13:13:57.072Z,16.76
2018-09-26T13:16:26.408Z,16.72
2018-09-26T13:18:55.372Z,16.69
2018-09-26T13:21:24.556Z,16.67
2018-09-26T13:23:53.379Z,16.56
2018-09-26T13:26:22.352Z,16.60
2018-09-26T13:28:51.311Z,16.68
2018-09-26T13:31:20.330Z,16.87
2018-09-26T13:33:49.153Z,16.81
2018-09-26T13:36:18.070Z,16.76
2018-09-26T13:38:46.911Z,16.83
2018-09-26T13:41:16.103Z,16.82
2018-09-26T13:43:44.970Z,16.78
2018-09-26T13:46:13.962Z,16.70
2018-09-26T13:48:43.160Z,16.65
2018-09-26T13:51:11.898Z,16.59
2018-09-26T13:53:40.888Z,16.55
2018-09-26T13:56:09.725Z,16.60
2018-09-26T13:58:38.901Z,16.66
2018-09-26T14:01:08.301Z,16.68
2018-09-26T14:03:37.394Z,16.62
2018-09-26T14:06:06.819Z,16.60
2018-09-26T14:08:35.785Z,16.60
2018-09-26T14:11:04.526Z,16.62
2018-09-26T14:13:33.465Z,16.68
2018-09-26T14:16:02.361Z,16.73
2018-09-26T14:18:31.949Z,16.77
2018-09-26T14:21:01.241Z,16.85
2018-09-26T14:23:30.537Z,17.00
2018-09-26T14:25:59.677Z,17.01
2018-09-26T14:28:28.973Z,17.14
2018-09-26T14:30:57.874Z,17.08
2018-09-26T14:33:26.824Z,17.04
2018-09-26T14:35:56.459Z,16.99
2018-09-26T14:38:25.506Z,16.98
2018-09-26T14:40:54.433Z,16.99
2018-09-26T14:43:23.509Z,17.00
2018-09-26T14:45:52.356Z,17.00
2018-09-26T14:48:22.330Z,16.97
2018-09-26T14:50:51.168Z,17.03
2018-09-26T14:53:20.299Z,17.02
2018-09-26T14:55:49.332Z,17.05
2018-09-26T14:58:18.257Z,17.06
2018-09-26T15:00:47.524Z,17.11
2018-09-26T15:03:17.940Z,17.10
2018-09-26T15:05:47.035Z,17.08
2018-09-26T15:08:16.897Z,17.09
2018-09-26T15:10:46.784Z,17.04
2018-09-26T15:13:15.955Z,17.00
2018-09-26T15:15:45.075Z,16.93
2018-09-26T15:18:13.897Z,16.89
2018-09-26T15:20:42.684Z,16.84
2018-09-26T15:23:11.529Z,16.78
2018-09-26T15:25:40.628Z,16.78
2018-09-26T15:28:09.846Z,16.72
2018-09-26T15:30:38.649Z,16.70
2018-09-26T15:33:07.738Z,16.70
2018-09-26T15:35:36.590Z,16.65
2018-09-26T15:38:05.511Z,16.61
2018-09-26T15:40:34.740Z,16.59
2018-09-26T15:43:03.571Z,16.54
2018-09-26T15:45:32.528Z,16.53
2018-09-26T15:48:01.366Z,16.50
2018-09-26T15:50:30.144Z,16.48
2018-09-26T15:52:59.370Z,16.45
2018-09-26T15:55:28.193Z,16.42
2018-09-26T15:57:57.281Z,16.39
2018-09-26T16:00:26.282Z,16.36
2018-09-26T16:02:54.997Z,16.34
2018-09-26T16:05:24.175Z,16.29
2018-09-26T16:07:53.585Z,16.26
2018-09-26T16:10:22.415Z,16.28
2018-09-26T16:12:52.267Z,16.25
2018-09-26T16:15:21.098Z,16.26
2018-09-26T16:17:50.025Z,16.27
2018-09-26T16:20:19.767Z,16.24
2018-09-26T16:22:49.076Z,16.20
2018-09-26T16:25:18.178Z,16.17
2018-09-26T16:27:47.022Z,16.15
2018-09-26T16:30:15.752Z,16.12
2018-09-26T16:32:44.824Z,16.10
2018-09-26T16:35:13.985Z,16.06
2018-09-26T16:37:43.245Z,16.03
2018-09-26T16:40:12.569Z,16.01
2018-09-26T16:42:41.482Z,15.98
2018-09-26T16:45:10.893Z,15.94
2018-09-26T16:47:40.472Z,15.92
2018-09-26T16:50:09.798Z,15.87
2018-09-26T16:52:38.619Z,15.81
2018-09-26T16:55:07.552Z,15.77
2018-09-26T16:57:37.042Z,15.73
2018-09-26T17:00:06.025Z,15.70
2018-09-26T17:02:34.829Z,15.66
2018-09-26T17:05:03.901Z,15.64
2018-09-26T17:07:32.731Z,15.60
2018-09-26T17:10:01.525Z,15.60
2018-09-26T17:12:30.306Z,15.57
2018-09-26T17:14:59.509Z,15.53
2018-09-26T17:17:28.376Z,15.50
2018-09-26T17:19:57.192Z,15.51
2018-09-26T17:22:26.089Z,15.49
2018-09-26T17:24:55.053Z,15.49
2018-09-26T17:27:24.168Z,15.46
2018-09-26T17:29:52.974Z,15.46
2018-09-26T17:32:22.279Z,15.46
2018-09-26T17:34:51.407Z,15.45
2018-09-26T17:37:20.450Z,15.48
2018-09-26T17:39:49.279Z,15.48
2018-09-26T17:42:18.405Z,15.48
2018-09-26T17:44:47.371Z,15.49
2018-09-26T17:47:16.243Z,15.48
2018-09-26T17:49:45.328Z,15.49
2018-09-26T17:52:14.335Z,15.49
2018-09-26T17:54:43.488Z,15.49
2018-09-26T17:57:12.363Z,15.50
2018-09-26T17:59:41.801Z,15.49
2018-09-26T18:02:11.134Z,15.49
2018-09-26T18:04:40.320Z,15.51
2018-09-26T18:07:09.643Z,15.51
2018-09-26T18:09:38.457Z,15.52
2018-09-26T18:12:06.874Z,15.53
2018-09-26T18:14:36.194Z,15.52
2018-09-26T18:17:05.516Z,15.55
2018-09-26T18:19:34.509Z,15.55
2018-09-26T18:22:03.768Z,15.53
2018-09-26T18:24:32.973Z,15.56
2018-09-26T18:27:01.893Z,15.58
2018-09-26T18:29:30.696Z,15.58
2018-09-26T18:31:59.643Z,15.56
2018-09-26T18:34:28.523Z,15.56
2018-09-26T18:36:58.180Z,15.56
2018-09-26T18:39:27.067Z,15.56
2018-09-26T18:41:56.067Z,15.57
2018-09-26T18:44:25.020Z,15.56
2018-09-26T18:46:54.014Z,15.56
2018-09-26T18:49:22.839Z,15.57
2018-09-26T18:51:52.123Z,15.58
2018-09-26T18:54:20.969Z,15.60
2018-09-26T18:56:49.928Z,15.61
2018-09-26T18:59:19.063Z,15.59
2018-09-26T19:01:48.075Z,15.57
2018-09-26T19:04:17.223Z,15.55
2018-09-26T19:06:46.399Z,15.55
2018-09-26T19:09:15.780Z,15.56
2018-09-26T19:11:44.894Z,15.55
2018-09-26T19:14:13.809Z,15.55
2018-09-26T19:16:43.160Z,15.53
2018-09-26T19:19:12.304Z,15.51
2018-09-26T19:21:41.042Z,15.52
2018-09-26T19:24:10.432Z,15.52
2018-09-26T19:26:39.264Z,15.53
2018-09-26T19:29:08.059Z,15.55
2018-09-26T19:31:36.887Z,15.55
2018-09-26T19:34:06.334Z,15.58
2018-09-26T19:36:36.027Z,15.60
2018-09-26T19:39:07.399Z,15.61
2018-09-26T19:41:36.606Z,15.63
2018-09-26T19:44:05.566Z,15.67
2018-09-26T19:46:34.588Z,15.68
2018-09-26T19:49:03.998Z,15.70
2018-09-26T19:51:33.010Z,15.71
2018-09-26T19:54:02.235Z,15.72
2018-09-26T19:56:31.485Z,15.72
2018-09-26T19:59:06.988Z,15.71
2018-09-26T20:01:36.818Z,15.71
2018-09-26T20:04:05.959Z,15.70
2018-09-26T20:06:35.091Z,15.67
2018-09-26T20:09:04.139Z,15.67
2018-09-26T20:11:33.175Z,15.66
2018-09-26T20:14:02.170Z,15.64
2018-09-26T20:16:31.078Z,15.64
2018-09-26T20:18:59.927Z,15.66
2018-09-26T20:21:28.738Z,15.66
2018-09-26T20:23:57.962Z,15.62
2018-09-26T20:26:26.987Z,15.62
2018-09-26T20:28:56.124Z,15.62
2018-09-26T20:31:25.291Z,15.63
2018-09-26T20:33:54.400Z,15.67
2018-09-26T20:36:23.333Z,15.68
2018-09-26T20:38:52.710Z,15.66
2018-09-26T20:41:22.080Z,15.63
2018-09-26T20:43:51.193Z,15.64
2018-09-26T20:46:20.133Z,15.64
2018-09-26T20:48:49.018Z,15.67
2018-09-26T20:51:17.990Z,15.66
2018-09-26T20:53:47.181Z,15.67
2018-09-26T20:56:16.181Z,15.69
2018-09-26T20:58:45.232Z,15.67
2018-09-26T21:01:14.186Z,15.64
2018-09-26T21:03:43.126Z,15.63
2018-09-26T21:06:12.142Z,15.65
2018-09-26T21:08:41.198Z,15.64
2018-09-26T21:11:11.300Z,15.61
2018-09-26T21:13:40.632Z,15.60
2018-09-26T21:16:09.571Z,15.58
2018-09-26T21:18:38.691Z,15.59
2018-09-26T21:21:07.801Z,15.58
2018-09-26T21:23:37.067Z,15.57
2018-09-26T21:26:06.283Z,15.56
2018-09-26T21:28:35.035Z,15.52
2018-09-26T21:31:04.049Z,15.48
2018-09-26T21:33:32.849Z,15.46
2018-09-26T21:36:02.460Z,15.44
2018-09-26T21:38:31.757Z,15.44
2018-09-26T21:41:01.245Z,15.40
2018-09-26T21:43:30.502Z,15.37
2018-09-26T21:45:59.467Z,15.35
2018-09-26T21:48:28.675Z,15.34
2018-09-26T21:50:57.622Z,15.35
2018-09-26T21:53:26.756Z,15.35
2018-09-26T21:55:55.629Z,15.35
2018-09-26T21:58:24.522Z,15.33
2018-09-26T22:00:58.669Z,15.33
2018-09-26T22:03:27.867Z,15.33
2018-09-26T22:05:57.014Z,15.34
2018-09-26T22:08:25.891Z,15.34
2018-09-26T22:10:55.464Z,15.37
2018-09-26T22:13:24.804Z,15.38
2018-09-26T22:15:53.746Z,15.36
2018-09-26T22:18:22.544Z,15.35
2018-09-26T22:20:51.298Z,15.37
2018-09-26T22:23:20.108Z,15.36
2018-09-26T22:25:48.877Z,15.37
2018-09-26T22:28:17.673Z,15.38
2018-09-26T22:30:46.492Z,15.38
2018-09-26T22:33:15.552Z,15.40
2018-09-26T22:35:44.661Z,15.40
2018-09-26T22:38:13.705Z,15.41
2018-09-26T22:40:42.432Z,15.43
2018-09-26T22:43:11.220Z,15.40
2018-09-26T22:45:40.322Z,15.40
2018-09-26T22:48:09.247Z,15.41
2018-09-26T22:50:38.309Z,15.42
2018-09-26T22:53:07.582Z,15.41
2018-09-26T22:55:36.909Z,15.38
2018-09-26T22:58:06.216Z,15.39
2018-09-26T23:00:35.618Z,15.40
2018-09-26T23:03:05.752Z,15.39
2018-09-26T23:05:34.598Z,15.37
2018-09-26T23:08:03.403Z,15.35
2018-09-26T23:10:32.714Z,15.33
2018-09-26T23:13:01.505Z,15.31
2018-09-26T23:15:30.249Z,15.29
2018-09-26T23:17:59.402Z,15.27
2018-09-26T23:20:29.187Z,15.27
2018-09-26T23:22:58.157Z,15.23
2018-09-26T23:25:26.870Z,15.21
2018-09-26T23:27:55.880Z,15.20
2018-09-26T23:30:24.598Z,15.18
2018-09-26T23:32:53.319Z,15.16
2018-09-26T23:35:22.069Z,15.17
2018-09-26T23:37:51.011Z,15.18
2018-09-26T23:40:19.762Z,15.17
2018-09-26T23:42:48.534Z,15.17
2018-09-26T23:45:18.020Z,15.13
2018-09-26T23:47:47.647Z,15.10
2018-09-26T23:50:16.763Z,15.10
2018-09-26T23:52:45.467Z,15.10
2018-09-26T23:55:14.511Z,15.06
2018-09-26T23:57:43.446Z,15.05
